sensor_id;sensor_type;location;lat;lon;timestamp;P1;durP1;ratioP1;P2;durP2;ratioP2
24159;SDS011;62385;41.594;23.808;2023-04-21T00:00:01;10.93;;;2.45;;
24159;SDS011;62385;41.594;23.808;2023-04-21T00:02:32;2.35;;;1.48;;
24159;SDS011;62385;41.594;23.808;2023-04-21T00:04:58;1.77;;;1.17;;
24159;SDS011;62385;41.594;23.808;2023-04-21T00:07:25;2.90;;;1.97;;
24159;SDS011;62385;41.594;23.808;2023-04-21T00:09:51;3.45;;;1.90;;
24159;SDS011;62385;41.594;23.808;2023-04-21T00:12:17;1.10;;;1.05;;
24159;SDS011;62385;41.594;23.808;2023-04-21T00:14:43;2.33;;;1.63;;
24159;SDS011;62385;41.594;23.808;2023-04-21T00:17:09;2.97;;;1.38;;
24159;SDS011;62385;41.594;23.808;2023-04-21T00:19:35;1.80;;;1.20;;
24159;SDS011;62385;41.594;23.808;2023-04-21T00:22:00;1.60;;;1.35;;
24159;SDS011;62385;41.594;23.808;2023-04-21T00:24:26;2.13;;;1.40;;
24159;SDS011;62385;41.594;23.808;2023-04-21T00:26:52;3.27;;;2.03;;
24159;SDS011;62385;41.594;23.808;2023-04-21T00:29:17;1.20;;;1.10;;
24159;SDS011;62385;41.594;23.808;2023-04-21T00:31:43;2.93;;;1.50;;
24159;SDS011;62385;41.594;23.808;2023-04-21T00:34:09;2.23;;;1.63;;
24159;SDS011;62385;41.594;23.808;2023-04-21T00:36:35;3.30;;;1.80;;
24159;SDS011;62385;41.594;23.808;2023-04-21T00:39:00;3.73;;;1.63;;
24159;SDS011;62385;41.594;23.808;2023-04-21T00:41:27;1.40;;;1.03;;
24159;SDS011;62385;41.594;23.808;2023-04-21T00:46:34;1.10;;;0.53;;
24159;SDS011;62385;41.594;23.808;2023-04-21T00:49:02;3.90;;;1.57;;
24159;SDS011;62385;41.594;23.808;2023-04-21T00:51:30;2.77;;;1.97;;
24159;SDS011;62385;41.594;23.808;2023-04-21T00:53:59;3.03;;;1.47;;
24159;SDS011;62385;41.594;23.808;2023-04-21T00:56:27;2.80;;;2.20;;
24159;SDS011;62385;41.594;23.808;2023-04-21T00:58:55;1.13;;;1.03;;
24159;SDS011;62385;41.594;23.808;2023-04-21T01:01:22;1.90;;;1.53;;
24159;SDS011;62385;41.594;23.808;2023-04-21T01:03:48;2.03;;;1.83;;
24159;SDS011;62385;41.594;23.808;2023-04-21T01:06:15;2.27;;;1.73;;
24159;SDS011;62385;41.594;23.808;2023-04-21T01:08:42;1.13;;;1.03;;
24159;SDS011;62385;41.594;23.808;2023-04-21T01:11:14;1.80;;;0.90;;
24159;SDS011;62385;41.594;23.808;2023-04-21T01:13:40;3.10;;;2.17;;
24159;SDS011;62385;41.594;23.808;2023-04-21T01:16:05;1.70;;;1.60;;
24159;SDS011;62385;41.594;23.808;2023-04-21T01:18:32;3.30;;;1.33;;
24159;SDS011;62385;41.594;23.808;2023-04-21T01:20:58;4.60;;;2.53;;
24159;SDS011;62385;41.594;23.808;2023-04-21T01:23:24;2.40;;;1.67;;
24159;SDS011;62385;41.594;23.808;2023-04-21T01:25:50;2.03;;;1.83;;
24159;SDS011;62385;41.594;23.808;2023-04-21T01:28:22;1.60;;;1.33;;
24159;SDS011;62385;41.594;23.808;2023-04-21T01:30:50;1.47;;;1.30;;
24159;SDS011;62385;41.594;23.808;2023-04-21T01:33:20;1.63;;;1.23;;
24159;SDS011;62385;41.594;23.808;2023-04-21T01:35:46;1.97;;;1.03;;
24159;SDS011;62385;41.594;23.808;2023-04-21T01:38:12;1.83;;;1.47;;
24159;SDS011;62385;41.594;23.808;2023-04-21T01:40:38;2.70;;;1.80;;
24159;SDS011;62385;41.594;23.808;2023-04-21T01:43:07;3.00;;;1.30;;
24159;SDS011;62385;41.594;23.808;2023-04-21T01:45:33;1.63;;;1.53;;
24159;SDS011;62385;41.594;23.808;2023-04-21T01:48:01;3.20;;;1.60;;
24159;SDS011;62385;41.594;23.808;2023-04-21T01:50:27;1.43;;;1.27;;
24159;SDS011;62385;41.594;23.808;2023-04-21T01:52:52;1.97;;;1.53;;
24159;SDS011;62385;41.594;23.808;2023-04-21T01:55:18;1.47;;;1.30;;
24159;SDS011;62385;41.594;23.808;2023-04-21T01:57:44;2.53;;;1.30;;
24159;SDS011;62385;41.594;23.808;2023-04-21T02:00:10;4.40;;;2.13;;
24159;SDS011;62385;41.594;23.808;2023-04-21T02:02:43;2.30;;;1.40;;
24159;SDS011;62385;41.594;23.808;2023-04-21T02:05:11;1.27;;;0.80;;
24159;SDS011;62385;41.594;23.808;2023-04-21T02:07:36;1.70;;;1.17;;
24159;SDS011;62385;41.594;23.808;2023-04-21T02:10:02;2.73;;;1.63;;
24159;SDS011;62385;41.594;23.808;2023-04-21T02:12:28;1.93;;;1.40;;
24159;SDS011;62385;41.594;23.808;2023-04-21T02:14:54;5.27;;;2.33;;
24159;SDS011;62385;41.594;23.808;2023-04-21T02:17:19;1.30;;;1.20;;
24159;SDS011;62385;41.594;23.808;2023-04-21T02:19:45;3.73;;;1.47;;
24159;SDS011;62385;41.594;23.808;2023-04-21T02:22:12;12.50;;;3.73;;
24159;SDS011;62385;41.594;23.808;2023-04-21T02:24:38;7.07;;;2.90;;
24159;SDS011;62385;41.594;23.808;2023-04-21T02:27:04;2.30;;;1.37;;
24159;SDS011;62385;41.594;23.808;2023-04-21T02:29:29;3.77;;;2.27;;
24159;SDS011;62385;41.594;23.808;2023-04-21T02:31:55;4.43;;;1.70;;
24159;SDS011;62385;41.594;23.808;2023-04-21T02:34:21;3.23;;;2.40;;
24159;SDS011;62385;41.594;23.808;2023-04-21T02:36:46;3.70;;;2.00;;
24159;SDS011;62385;41.594;23.808;2023-04-21T02:39:12;1.67;;;1.17;;
24159;SDS011;62385;41.594;23.808;2023-04-21T02:41:38;3.90;;;2.07;;
24159;SDS011;62385;41.594;23.808;2023-04-21T02:44:04;1.93;;;1.53;;
24159;SDS011;62385;41.594;23.808;2023-04-21T02:46:29;3.70;;;1.87;;
24159;SDS011;62385;41.594;23.808;2023-04-21T02:48:57;5.83;;;1.70;;
24159;SDS011;62385;41.594;23.808;2023-04-21T02:51:23;2.47;;;1.77;;
24159;SDS011;62385;41.594;23.808;2023-04-21T02:53:48;2.60;;;1.30;;
24159;SDS011;62385;41.594;23.808;2023-04-21T02:56:14;3.10;;;1.53;;
24159;SDS011;62385;41.594;23.808;2023-04-21T02:58:40;1.93;;;1.57;;
24159;SDS011;62385;41.594;23.808;2023-04-21T03:01:06;1.77;;;1.37;;
24159;SDS011;62385;41.594;23.808;2023-04-21T03:03:33;4.80;;;2.63;;
24159;SDS011;62385;41.594;23.808;2023-04-21T03:05:59;9.07;;;2.07;;
24159;SDS011;62385;41.594;23.808;2023-04-21T03:08:26;2.67;;;1.67;;
24159;SDS011;62385;41.594;23.808;2023-04-21T03:10:51;2.47;;;1.07;;
24159;SDS011;62385;41.594;23.808;2023-04-21T03:13:20;5.67;;;3.03;;
24159;SDS011;62385;41.594;23.808;2023-04-21T03:15:49;9.17;;;3.17;;
24159;SDS011;62385;41.594;23.808;2023-04-21T03:18:15;2.47;;;1.50;;
24159;SDS011;62385;41.594;23.808;2023-04-21T03:20:41;1.87;;;1.23;;
24159;SDS011;62385;41.594;23.808;2023-04-21T03:23:07;13.40;;;2.83;;
24159;SDS011;62385;41.594;23.808;2023-04-21T03:25:33;6.20;;;1.77;;
24159;SDS011;62385;41.594;23.808;2023-04-21T03:28:00;1.30;;;1.20;;
24159;SDS011;62385;41.594;23.808;2023-04-21T03:30:25;4.17;;;3.00;;
24159;SDS011;62385;41.594;23.808;2023-04-21T03:32:52;3.30;;;1.87;;
24159;SDS011;62385;41.594;23.808;2023-04-21T03:35:19;2.57;;;1.57;;
24159;SDS011;62385;41.594;23.808;2023-04-21T03:37:45;3.10;;;2.20;;
24159;SDS011;62385;41.594;23.808;2023-04-21T03:40:11;8.23;;;2.67;;
24159;SDS011;62385;41.594;23.808;2023-04-21T03:42:36;3.63;;;2.80;;
24159;SDS011;62385;41.594;23.808;2023-04-21T03:45:02;2.93;;;2.17;;
24159;SDS011;62385;41.594;23.808;2023-04-21T03:47:32;3.20;;;1.90;;
24159;SDS011;62385;41.594;23.808;2023-04-21T03:49:57;4.43;;;2.83;;
24159;SDS011;62385;41.594;23.808;2023-04-21T03:52:23;1.83;;;1.13;;
24159;SDS011;62385;41.594;23.808;2023-04-21T03:54:49;3.90;;;1.53;;
24159;SDS011;62385;41.594;23.808;2023-04-21T03:57:15;1.27;;;1.17;;
24159;SDS011;62385;41.594;23.808;2023-04-21T03:59:41;2.10;;;1.40;;
24159;SDS011;62385;41.594;23.808;2023-04-21T04:02:07;2.73;;;2.33;;
24159;SDS011;62385;41.594;23.808;2023-04-21T04:04:32;3.70;;;1.53;;
24159;SDS011;62385;41.594;23.808;2023-04-21T04:06:58;2.13;;;1.27;;
24159;SDS011;62385;41.594;23.808;2023-04-21T04:09:23;2.33;;;1.97;;
24159;SDS011;62385;41.594;23.808;2023-04-21T04:11:50;1.33;;;1.23;;
24159;SDS011;62385;41.594;23.808;2023-04-21T04:14:15;2.97;;;2.63;;
24159;SDS011;62385;41.594;23.808;2023-04-21T04:16:41;3.40;;;2.17;;
24159;SDS011;62385;41.594;23.808;2023-04-21T04:19:06;1.63;;;1.20;;
24159;SDS011;62385;41.594;23.808;2023-04-21T04:21:32;2.13;;;1.90;;
24159;SDS011;62385;41.594;23.808;2023-04-21T04:23:58;4.30;;;1.90;;
24159;SDS011;62385;41.594;23.808;2023-04-21T04:26:25;4.70;;;2.93;;
24159;SDS011;62385;41.594;23.808;2023-04-21T04:28:50;1.70;;;0.90;;
24159;SDS011;62385;41.594;23.808;2023-04-21T04:31:18;4.87;;;3.57;;
24159;SDS011;62385;41.594;23.808;2023-04-21T04:33:43;4.80;;;2.60;;
24159;SDS011;62385;41.594;23.808;2023-04-21T04:36:10;8.40;;;5.10;;
24159;SDS011;62385;41.594;23.808;2023-04-21T04:38:38;8.07;;;4.90;;
24159;SDS011;62385;41.594;23.808;2023-04-21T04:41:04;10.53;;;5.47;;
24159;SDS011;62385;41.594;23.808;2023-04-21T04:43:30;5.07;;;3.67;;
24159;SDS011;62385;41.594;23.808;2023-04-21T04:46:04;3.53;;;2.77;;
24159;SDS011;62385;41.594;23.808;2023-04-21T04:48:30;9.30;;;4.73;;
24159;SDS011;62385;41.594;23.808;2023-04-21T04:50:57;11.27;;;5.87;;
24159;SDS011;62385;41.594;23.808;2023-04-21T04:53:22;7.80;;;4.20;;
24159;SDS011;62385;41.594;23.808;2023-04-21T04:55:48;28.17;;;9.87;;
24159;SDS011;62385;41.594;23.808;2023-04-21T04:58:13;26.97;;;10.07;;
24159;SDS011;62385;41.594;23.808;2023-04-21T05:00:39;28.97;;;13.23;;
24159;SDS011;62385;41.594;23.808;2023-04-21T05:03:05;46.60;;;19.57;;
24159;SDS011;62385;41.594;23.808;2023-04-21T05:05:30;30.47;;;14.73;;
24159;SDS011;62385;41.594;23.808;2023-04-21T05:07:56;16.90;;;9.50;;
24159;SDS011;62385;41.594;23.808;2023-04-21T05:10:22;24.23;;;11.23;;
24159;SDS011;62385;41.594;23.808;2023-04-21T05:12:48;25.53;;;11.73;;
24159;SDS011;62385;41.594;23.808;2023-04-21T05:15:14;17.57;;;10.40;;
24159;SDS011;62385;41.594;23.808;2023-04-21T05:17:41;12.80;;;8.23;;
24159;SDS011;62385;41.594;23.808;2023-04-21T05:20:06;10.43;;;6.23;;
24159;SDS011;62385;41.594;23.808;2023-04-21T05:22:36;9.67;;;5.27;;
24159;SDS011;62385;41.594;23.808;2023-04-21T05:25:02;6.10;;;3.27;;
24159;SDS011;62385;41.594;23.808;2023-04-21T05:27:29;9.18;;;4.38;;
24159;SDS011;62385;41.594;23.808;2023-04-21T05:29:55;6.10;;;3.70;;
24159;SDS011;62385;41.594;23.808;2023-04-21T05:32:20;7.77;;;2.90;;
24159;SDS011;62385;41.594;23.808;2023-04-21T05:34:46;7.20;;;4.80;;
24159;SDS011;62385;41.594;23.808;2023-04-21T05:37:11;3.03;;;2.20;;
24159;SDS011;62385;41.594;23.808;2023-04-21T05:39:37;5.80;;;3.63;;
24159;SDS011;62385;41.594;23.808;2023-04-21T05:42:02;16.73;;;8.32;;
24159;SDS011;62385;41.594;23.808;2023-04-21T05:44:28;6.67;;;5.00;;
24159;SDS011;62385;41.594;23.808;2023-04-21T05:46:53;8.38;;;3.97;;
24159;SDS011;62385;41.594;23.808;2023-04-21T05:49:19;12.37;;;6.10;;
24159;SDS011;62385;41.594;23.808;2023-04-21T05:51:45;4.28;;;3.50;;
24159;SDS011;62385;41.594;23.808;2023-04-21T05:54:10;7.95;;;4.32;;
24159;SDS011;62385;41.594;23.808;2023-04-21T05:56:36;4.75;;;3.88;;
24159;SDS011;62385;41.594;23.808;2023-04-21T05:59:03;6.32;;;3.78;;
24159;SDS011;62385;41.594;23.808;2023-04-21T06:01:31;4.75;;;3.53;;
24159;SDS011;62385;41.594;23.808;2023-04-21T06:03:57;4.43;;;3.65;;
24159;SDS011;62385;41.594;23.808;2023-04-21T06:06:24;6.82;;;4.63;;
24159;SDS011;62385;41.594;23.808;2023-04-21T06:08:50;6.90;;;3.97;;
24159;SDS011;62385;41.594;23.808;2023-04-21T06:11:17;7.05;;;3.92;;
24159;SDS011;62385;41.594;23.808;2023-04-21T06:13:42;7.40;;;3.90;;
24159;SDS011;62385;41.594;23.808;2023-04-21T06:16:08;8.00;;;3.42;;
24159;SDS011;62385;41.594;23.808;2023-04-21T06:18:34;2.97;;;2.15;;
24159;SDS011;62385;41.594;23.808;2023-04-21T06:20:59;5.95;;;3.78;;
24159;SDS011;62385;41.594;23.808;2023-04-21T06:23:25;3.78;;;2.10;;
24159;SDS011;62385;41.594;23.808;2023-04-21T06:26:03;5.63;;;3.55;;
24159;SDS011;62385;41.594;23.808;2023-04-21T06:28:34;4.50;;;3.15;;
24159;SDS011;62385;41.594;23.808;2023-04-21T06:31:01;5.32;;;3.85;;
24159;SDS011;62385;41.594;23.808;2023-04-21T06:33:28;7.72;;;4.97;;
24159;SDS011;62385;41.594;23.808;2023-04-21T06:35:54;15.40;;;4.38;;
24159;SDS011;62385;41.594;23.808;2023-04-21T06:38:20;3.83;;;3.17;;
24159;SDS011;62385;41.594;23.808;2023-04-21T06:40:46;6.90;;;3.92;;
24159;SDS011;62385;41.594;23.808;2023-04-21T06:43:12;3.97;;;2.80;;
24159;SDS011;62385;41.594;23.808;2023-04-21T06:45:38;18.45;;;3.22;;
24159;SDS011;62385;41.594;23.808;2023-04-21T06:48:03;4.18;;;3.28;;
24159;SDS011;62385;41.594;23.808;2023-04-21T06:50:29;5.88;;;3.55;;
24159;SDS011;62385;41.594;23.808;2023-04-21T06:52:54;8.07;;;3.20;;
24159;SDS011;62385;41.594;23.808;2023-04-21T06:55:20;4.40;;;1.52;;
24159;SDS011;62385;41.594;23.808;2023-04-21T06:57:46;2.85;;;1.63;;
24159;SDS011;62385;41.594;23.808;2023-04-21T07:00:12;5.13;;;2.17;;
24159;SDS011;62385;41.594;23.808;2023-04-21T07:02:38;6.22;;;2.15;;
24159;SDS011;62385;41.594;23.808;2023-04-21T07:05:04;3.67;;;2.50;;
24159;SDS011;62385;41.594;23.808;2023-04-21T07:07:29;3.05;;;1.95;;
24159;SDS011;62385;41.594;23.808;2023-04-21T07:09:55;6.82;;;2.58;;
24159;SDS011;62385;41.594;23.808;2023-04-21T07:12:21;3.15;;;1.55;;
24159;SDS011;62385;41.594;23.808;2023-04-21T07:14:46;14.68;;;3.38;;
24159;SDS011;62385;41.594;23.808;2023-04-21T07:17:12;5.03;;;3.28;;
24159;SDS011;62385;41.594;23.808;2023-04-21T07:19:39;12.25;;;7.13;;
24159;SDS011;62385;41.594;23.808;2023-04-21T07:22:04;3.63;;;2.80;;
24159;SDS011;62385;41.594;23.808;2023-04-21T07:24:30;3.75;;;2.47;;
24159;SDS011;62385;41.594;23.808;2023-04-21T07:26:59;3.22;;;2.58;;
24159;SDS011;62385;41.594;23.808;2023-04-21T07:29:26;2.85;;;2.15;;
24159;SDS011;62385;41.594;23.808;2023-04-21T07:31:52;2.72;;;1.88;;
24159;SDS011;62385;41.594;23.808;2023-04-21T07:34:20;2.38;;;1.33;;
24159;SDS011;62385;41.594;23.808;2023-04-21T07:36:45;5.65;;;3.30;;
24159;SDS011;62385;41.594;23.808;2023-04-21T07:39:11;1.92;;;1.75;;
24159;SDS011;62385;41.594;23.808;2023-04-21T07:41:37;4.22;;;2.40;;
24159;SDS011;62385;41.594;23.808;2023-04-21T07:44:03;2.75;;;1.70;;
24159;SDS011;62385;41.594;23.808;2023-04-21T07:46:28;2.63;;;2.20;;
24159;SDS011;62385;41.594;23.808;2023-04-21T07:48:59;2.25;;;1.80;;
24159;SDS011;62385;41.594;23.808;2023-04-21T07:51:25;3.13;;;1.65;;
24159;SDS011;62385;41.594;23.808;2023-04-21T07:53:52;4.13;;;2.78;;
24159;SDS011;62385;41.594;23.808;2023-04-21T07:56:18;2.60;;;1.98;;
24159;SDS011;62385;41.594;23.808;2023-04-21T07:58:44;1.88;;;1.50;;
24159;SDS011;62385;41.594;23.808;2023-04-21T08:01:12;6.53;;;1.85;;
24159;SDS011;62385;41.594;23.808;2023-04-21T08:03:44;2.17;;;1.35;;
24159;SDS011;62385;41.594;23.808;2023-04-21T08:06:10;1.42;;;1.33;;
24159;SDS011;62385;41.594;23.808;2023-04-21T08:08:36;4.65;;;1.63;;
24159;SDS011;62385;41.594;23.808;2023-04-21T08:11:02;3.28;;;1.88;;
24159;SDS011;62385;41.594;23.808;2023-04-21T08:13:36;2.65;;;2.17;;
24159;SDS011;62385;41.594;23.808;2023-04-21T08:16:02;4.22;;;2.03;;
24159;SDS011;62385;41.594;23.808;2023-04-21T09:08:14;0.60;;;0.60;;
24159;SDS011;62385;41.594;23.808;2023-04-21T09:11:56;1.30;;;1.20;;
24159;SDS011;62385;41.594;23.808;2023-04-21T09:14:35;1.27;;;1.17;;
24159;SDS011;62385;41.594;23.808;2023-04-21T09:17:08;1.83;;;1.63;;
24159;SDS011;62385;41.594;23.808;2023-04-21T09:19:43;1.52;;;1.20;;
24159;SDS011;62385;41.594;23.808;2023-04-21T09:22:13;1.40;;;1.08;;
24159;SDS011;62385;41.594;23.808;2023-04-21T09:24:45;2.60;;;1.35;;
24159;SDS011;62385;41.594;23.808;2023-04-21T09:27:21;3.38;;;1.55;;
24159;SDS011;62385;41.594;23.808;2023-04-21T09:29:46;1.65;;;1.27;;
24159;SDS011;62385;41.594;23.808;2023-04-21T09:32:16;2.80;;;1.77;;
24159;SDS011;62385;41.594;23.808;2023-04-21T09:34:44;2.00;;;1.15;;
24159;SDS011;62385;41.594;23.808;2023-04-21T09:37:10;1.35;;;1.25;;
24159;SDS011;62385;41.594;23.808;2023-04-21T09:39:38;1.85;;;1.10;;
24159;SDS011;62385;41.594;23.808;2023-04-21T09:42:09;1.55;;;1.25;;
24159;SDS011;62385;41.594;23.808;2023-04-21T09:44:35;1.92;;;1.38;;
24159;SDS011;62385;41.594;23.808;2023-04-21T09:47:03;2.60;;;1.27;;
24159;SDS011;62385;41.594;23.808;2023-04-21T09:49:29;4.60;;;1.00;;
24159;SDS011;62385;41.594;23.808;2023-04-21T09:51:59;0.95;;;0.77;;
24159;SDS011;62385;41.594;23.808;2023-04-21T09:54:29;1.15;;;1.05;;
24159;SDS011;62385;41.594;23.808;2023-04-21T09:56:58;1.35;;;1.13;;
24159;SDS011;62385;41.594;23.808;2023-04-21T09:59:35;1.63;;;0.70;;
24159;SDS011;62385;41.594;23.808;2023-04-21T10:02:05;1.27;;;1.15;;
24159;SDS011;62385;41.594;23.808;2023-04-21T10:04:33;2.25;;;1.17;;
24159;SDS011;62385;41.594;23.808;2023-04-21T10:07:01;1.42;;;0.73;;
24159;SDS011;62385;41.594;23.808;2023-04-21T10:09:32;3.65;;;1.42;;
24159;SDS011;62385;41.594;23.808;2023-04-21T10:12:04;1.83;;;1.15;;
24159;SDS011;62385;41.594;23.808;2023-04-21T10:14:31;4.70;;;1.73;;
24159;SDS011;62385;41.594;23.808;2023-04-21T10:17:03;0.85;;;0.75;;
24159;SDS011;62385;41.594;23.808;2023-04-21T10:19:30;1.15;;;0.85;;
24159;SDS011;62385;41.594;23.808;2023-04-21T10:22:01;1.20;;;1.05;;
24159;SDS011;62385;41.594;23.808;2023-04-21T10:24:29;2.85;;;1.27;;
24159;SDS011;62385;41.594;23.808;2023-04-21T10:26:57;1.65;;;1.10;;
24159;SDS011;62385;41.594;23.808;2023-04-21T10:29:29;1.08;;;0.82;;
24159;SDS011;62385;41.594;23.808;2023-04-21T10:31:57;1.70;;;0.98;;
24159;SDS011;62385;41.594;23.808;2023-04-21T10:34:38;1.08;;;0.75;;
24159;SDS011;62385;41.594;23.808;2023-04-21T10:37:12;1.13;;;0.80;;
24159;SDS011;62385;41.594;23.808;2023-04-21T10:42:52;1.65;;;1.10;;
24159;SDS011;62385;41.594;23.808;2023-04-21T10:45:19;1.92;;;1.27;;
24159;SDS011;62385;41.594;23.808;2023-04-21T10:47:45;1.50;;;1.33;;
24159;SDS011;62385;41.594;23.808;2023-04-21T10:50:14;2.38;;;1.63;;
24159;SDS011;62385;41.594;23.808;2023-04-21T10:52:42;1.83;;;0.93;;
24159;SDS011;62385;41.594;23.808;2023-04-21T10:55:09;1.08;;;0.95;;
24159;SDS011;62385;41.594;23.808;2023-04-21T10:57:40;4.07;;;1.58;;
24159;SDS011;62385;41.594;23.808;2023-04-21T11:00:07;7.18;;;3.85;;
24159;SDS011;62385;41.594;23.808;2023-04-21T11:02:36;5.72;;;2.08;;
24159;SDS011;62385;41.594;23.808;2023-04-21T11:05:03;5.15;;;2.42;;
24159;SDS011;62385;41.594;23.808;2023-04-21T11:07:30;4.60;;;2.67;;
24159;SDS011;62385;41.594;23.808;2023-04-21T11:12:39;1.17;;;0.93;;
24159;SDS011;62385;41.594;23.808;2023-04-21T11:15:14;1.85;;;1.48;;
24159;SDS011;62385;41.594;23.808;2023-04-21T11:17:40;1.27;;;0.98;;
24159;SDS011;62385;41.594;23.808;2023-04-21T11:20:11;1.45;;;0.95;;
24159;SDS011;62385;41.594;23.808;2023-04-21T11:22:36;1.33;;;1.13;;
24159;SDS011;62385;41.594;23.808;2023-04-21T11:25:03;0.55;;;0.45;;
24159;SDS011;62385;41.594;23.808;2023-04-21T11:27:29;1.95;;;1.27;;
24159;SDS011;62385;41.594;23.808;2023-04-21T11:29:56;0.88;;;0.88;;
24159;SDS011;62385;41.594;23.808;2023-04-21T11:32:22;1.13;;;1.02;;
24159;SDS011;62385;41.594;23.808;2023-04-21T11:34:49;1.10;;;1.00;;
24159;SDS011;62385;41.594;23.808;2023-04-21T11:37:15;1.77;;;1.08;;
24159;SDS011;62385;41.594;23.808;2023-04-21T11:39:47;1.33;;;0.85;;
24159;SDS011;62385;41.594;23.808;2023-04-21T11:42:19;0.70;;;0.70;;
24159;SDS011;62385;41.594;23.808;2023-04-21T11:44:46;2.05;;;1.00;;
24159;SDS011;62385;41.594;23.808;2023-04-21T11:52:30;3.63;;;2.25;;
24159;SDS011;62385;41.594;23.808;2023-04-21T11:55:11;1.15;;;0.98;;
24159;SDS011;62385;41.594;23.808;2023-04-21T11:57:40;2.58;;;1.20;;
24159;SDS011;62385;41.594;23.808;2023-04-21T12:00:07;4.28;;;2.28;;
24159;SDS011;62385;41.594;23.808;2023-04-21T12:02:39;0.93;;;0.63;;
24159;SDS011;62385;41.594;23.808;2023-04-21T12:05:06;1.08;;;0.90;;
24159;SDS011;62385;41.594;23.808;2023-04-21T12:07:36;1.60;;;0.85;;
24159;SDS011;62385;41.594;23.808;2023-04-21T12:10:17;0.85;;;0.80;;
24159;SDS011;62385;41.594;23.808;2023-04-21T12:12:43;3.20;;;1.10;;
24159;SDS011;62385;41.594;23.808;2023-04-21T12:15:18;1.48;;;0.82;;
24159;SDS011;62385;41.594;23.808;2023-04-21T12:17:54;1.77;;;1.38;;
24159;SDS011;62385;41.594;23.808;2023-04-21T12:20:21;1.13;;;0.90;;
24159;SDS011;62385;41.594;23.808;2023-04-21T12:22:48;1.45;;;1.17;;
24159;SDS011;62385;41.594;23.808;2023-04-21T12:25:16;1.90;;;1.33;;
24159;SDS011;62385;41.594;23.808;2023-04-21T12:30:15;1.02;;;0.90;;
24159;SDS011;62385;41.594;23.808;2023-04-21T12:32:41;1.35;;;1.23;;
24159;SDS011;62385;41.594;23.808;2023-04-21T12:35:07;1.33;;;1.08;;
24159;SDS011;62385;41.594;23.808;2023-04-21T12:37:33;4.15;;;1.38;;
24159;SDS011;62385;41.594;23.808;2023-04-21T12:39:59;1.88;;;0.98;;
24159;SDS011;62385;41.594;23.808;2023-04-21T12:42:24;1.17;;;1.08;;
24159;SDS011;62385;41.594;23.808;2023-04-21T12:44:50;1.52;;;1.00;;
24159;SDS011;62385;41.594;23.808;2023-04-21T12:47:15;0.80;;;0.80;;
24159;SDS011;62385;41.594;23.808;2023-04-21T12:49:44;1.13;;;0.80;;
24159;SDS011;62385;41.594;23.808;2023-04-21T12:52:10;1.48;;;0.80;;
24159;SDS011;62385;41.594;23.808;2023-04-21T12:54:36;2.50;;;1.40;;
24159;SDS011;62385;41.594;23.808;2023-04-21T12:57:01;1.33;;;1.00;;
24159;SDS011;62385;41.594;23.808;2023-04-21T12:59:28;0.98;;;0.88;;
24159;SDS011;62385;41.594;23.808;2023-04-21T13:01:53;0.70;;;0.68;;
24159;SDS011;62385;41.594;23.808;2023-04-21T13:04:20;0.80;;;0.70;;
24159;SDS011;62385;41.594;23.808;2023-04-21T13:06:51;4.30;;;0.80;;
24159;SDS011;62385;41.594;23.808;2023-04-21T13:09:17;1.02;;;0.52;;
24159;SDS011;62385;41.594;23.808;2023-04-21T13:11:44;1.35;;;1.20;;
24159;SDS011;62385;41.594;23.808;2023-04-21T13:14:09;2.13;;;1.42;;
24159;SDS011;62385;41.594;23.808;2023-04-21T13:16:36;0.88;;;0.77;;
24159;SDS011;62385;41.594;23.808;2023-04-21T13:19:01;1.13;;;0.95;;
24159;SDS011;62385;41.594;23.808;2023-04-21T13:21:28;0.75;;;0.75;;
24159;SDS011;62385;41.594;23.808;2023-04-21T13:23:54;1.10;;;1.00;;
24159;SDS011;62385;41.594;23.808;2023-04-21T13:26:21;1.13;;;0.80;;
24159;SDS011;62385;41.594;23.808;2023-04-21T13:28:47;0.82;;;0.73;;
24159;SDS011;62385;41.594;23.808;2023-04-21T13:31:13;1.73;;;0.57;;
24159;SDS011;62385;41.594;23.808;2023-04-21T13:33:39;1.05;;;0.80;;
24159;SDS011;62385;41.594;23.808;2023-04-21T13:36:05;1.00;;;0.90;;
24159;SDS011;62385;41.594;23.808;2023-04-21T13:38:32;1.05;;;0.80;;
24159;SDS011;62385;41.594;23.808;2023-04-21T13:40:57;0.95;;;0.82;;
24159;SDS011;62385;41.594;23.808;2023-04-21T13:43:23;1.60;;;0.95;;
24159;SDS011;62385;41.594;23.808;2023-04-21T13:45:50;1.10;;;0.88;;
24159;SDS011;62385;41.594;23.808;2023-04-21T13:48:17;1.55;;;0.85;;
24159;SDS011;62385;41.594;23.808;2023-04-21T13:50:47;1.02;;;0.90;;
24159;SDS011;62385;41.594;23.808;2023-04-21T13:53:13;1.65;;;1.08;;
24159;SDS011;62385;41.594;23.808;2023-04-21T13:55:41;0.73;;;0.52;;
24159;SDS011;62385;41.594;23.808;2023-04-21T13:58:07;0.95;;;0.77;;
24159;SDS011;62385;41.594;23.808;2023-04-21T14:00:33;1.85;;;0.93;;
24159;SDS011;62385;41.594;23.808;2023-04-21T14:02:59;0.68;;;0.50;;
24159;SDS011;62385;41.594;23.808;2023-04-21T14:05:25;0.75;;;0.63;;
24159;SDS011;62385;41.594;23.808;2023-04-21T14:07:51;1.60;;;0.95;;
24159;SDS011;62385;41.594;23.808;2023-04-21T14:10:16;0.55;;;0.52;;
24159;SDS011;62385;41.594;23.808;2023-04-21T14:12:42;1.13;;;1.00;;
24159;SDS011;62385;41.594;23.808;2023-04-21T14:15:10;1.23;;;0.80;;
24159;SDS011;62385;41.594;23.808;2023-04-21T14:17:37;2.40;;;0.90;;
24159;SDS011;62385;41.594;23.808;2023-04-21T14:20:03;1.38;;;0.80;;
24159;SDS011;62385;41.594;23.808;2023-04-21T14:22:28;0.98;;;0.70;;
24159;SDS011;62385;41.594;23.808;2023-04-21T14:24:54;1.73;;;1.10;;
24159;SDS011;62385;41.594;23.808;2023-04-21T14:27:20;1.10;;;0.90;;
24159;SDS011;62385;41.594;23.808;2023-04-21T14:29:45;1.75;;;1.50;;
24159;SDS011;62385;41.594;23.808;2023-04-21T14:32:11;0.80;;;0.70;;
24159;SDS011;62385;41.594;23.808;2023-04-21T14:34:38;1.05;;;0.93;;
24159;SDS011;62385;41.594;23.808;2023-04-21T14:37:03;1.20;;;0.90;;
24159;SDS011;62385;41.594;23.808;2023-04-21T14:39:29;0.73;;;0.68;;
24159;SDS011;62385;41.594;23.808;2023-04-21T14:41:55;0.60;;;0.60;;
24159;SDS011;62385;41.594;23.808;2023-04-21T14:44:22;1.58;;;1.10;;
24159;SDS011;62385;41.594;23.808;2023-04-21T14:46:47;1.40;;;1.13;;
24159;SDS011;62385;41.594;23.808;2023-04-21T14:49:13;1.42;;;1.20;;
24159;SDS011;62385;41.594;23.808;2023-04-21T14:51:39;0.50;;;0.50;;
24159;SDS011;62385;41.594;23.808;2023-04-21T14:54:07;0.95;;;0.82;;
24159;SDS011;62385;41.594;23.808;2023-04-21T14:56:33;1.98;;;1.17;;
24159;SDS011;62385;41.594;23.808;2023-04-21T14:58:58;4.00;;;1.27;;
24159;SDS011;62385;41.594;23.808;2023-04-21T15:01:24;1.55;;;1.15;;
24159;SDS011;62385;41.594;23.808;2023-04-21T15:03:50;1.88;;;1.27;;
24159;SDS011;62385;41.594;23.808;2023-04-21T15:06:16;1.05;;;0.95;;
24159;SDS011;62385;41.594;23.808;2023-04-21T15:08:43;1.83;;;1.00;;
24159;SDS011;62385;41.594;23.808;2023-04-21T15:11:08;0.70;;;0.50;;
24159;SDS011;62385;41.594;23.808;2023-04-21T15:13:34;1.23;;;0.93;;
24159;SDS011;62385;41.594;23.808;2023-04-21T15:16:00;1.73;;;0.95;;
24159;SDS011;62385;41.594;23.808;2023-04-21T15:18:26;1.75;;;1.20;;
24159;SDS011;62385;41.594;23.808;2023-04-21T15:20:51;1.15;;;0.85;;
24159;SDS011;62385;41.594;23.808;2023-04-21T15:23:17;2.15;;;1.42;;
24159;SDS011;62385;41.594;23.808;2023-04-21T15:25:43;0.93;;;0.77;;
24159;SDS011;62385;41.594;23.808;2023-04-21T15:28:09;1.67;;;1.13;;
24159;SDS011;62385;41.594;23.808;2023-04-21T15:30:35;4.07;;;2.45;;
24159;SDS011;62385;41.594;23.808;2023-04-21T15:33:01;5.38;;;2.83;;
24159;SDS011;62385;41.594;23.808;2023-04-21T15:35:26;4.72;;;2.60;;
24159;SDS011;62385;41.594;23.808;2023-04-21T15:37:52;20.42;;;7.63;;